Time;durP1;ratioP1;P1;durP2;ratioP2;P2;SDS_P1;SDS_P2;PMS_P1;PMS_P2;Temp;Humidity;BMP_temperature;BMP_pressure;BME280_temperature;BME280_humidity;BME280_pressure;Samples;Min_cycle;Max_cycle;Signal;HPM_P1;HPM_P2
2022/01/20 05:00:56;;;;;;;9.57;1.77;;;2.50;99.90;;;;;;5700941;23;20308;-68
2022/01/20 05:03:24;;;;;;;1.90;0.80;;;2.50;99.90;;;;;;4952507;28;20240;-69
2022/01/20 05:05:51;;;;;;;3.08;0.75;;;2.40;99.90;;;;;;4954808;28;20209;-69
2022/01/20 05:08:22;;;;;;;2.38;1.27;;;2.40;99.90;;;;;;4954394;28;20585;-67
2022/01/20 05:10:49;;;;;;;2.30;1.45;;;2.30;99.90;;;;;;4951724;28;20316;-69
2022/01/20 05:13:23;;;;;;;3.25;0.93;;;2.30;99.90;;;;;;4935569;29;20206;-68
2022/01/20 05:15:50;;;;;;;1.10;0.60;;;2.20;99.90;;;;;;4932984;29;20244;-68
2022/01/20 05:18:18;;;;;;;3.13;1.02;;;2.20;99.90;;;;;;4935742;29;20210;-70
2022/01/20 05:20:44;;;;;;;5.65;0.95;;;2.10;99.90;;;;;;4940572;29;20238;-69
2022/01/20 05:23:11;;;;;;;5.57;1.02;;;2.10;99.90;;;;;;4957639;23;20238;-69
2022/01/20 05:25:38;;;;;;;2.03;1.10;;;2.10;99.90;;;;;;4945804;28;20231;-70
2022/01/20 05:28:05;;;;;;;3.25;1.20;;;2.10;99.90;;;;;;4954866;28;20213;-70
2022/01/20 05:30:31;;;;;;;4.28;1.70;;;2.10;99.90;;;;;;4944163;28;20383;-71
2022/01/20 05:33:00;;;;;;;5.95;1.75;;;2.00;99.90;;;;;;4950144;28;20197;-71
2022/01/20 05:35:28;;;;;;;6.05;2.35;;;2.00;99.90;;;;;;4942711;28;20205;-71
2022/01/20 05:37:55;;;;;;;1.40;1.10;;;1.90;99.90;;;;;;4934866;29;20213;-71
2022/01/20 05:40:22;;;;;;;9.68;1.35;;;1.90;99.90;;;;;;4927950;29;20210;-72
2022/01/20 05:42:48;;;;;;;5.05;2.22;;;1.90;99.90;;;;;;4938651;29;20225;-71
2022/01/20 05:45:15;;;;;;;5.13;1.92;;;1.90;99.90;;;;;;4935422;28;20695;-72
2022/01/20 05:47:45;;;;;;;1.88;1.60;;;1.80;99.90;;;;;;4935134;29;20206;-71
2022/01/20 05:50:13;;;;;;;6.40;1.67;;;1.80;99.90;;;;;;4934531;29;20210;-71
2022/01/20 05:52:42;;;;;;;4.07;1.35;;;1.80;99.90;;;;;;4939510;29;20216;-71
2022/01/20 05:55:11;;;;;;;17.45;1.80;;;1.80;99.90;;;;;;4935039;29;20317;-71
2022/01/20 05:57:38;;;;;;;2.17;0.90;;;1.80;99.90;;;;;;4934629;29;20671;-71
2022/01/20 06:00:06;;;;;;;1.42;1.33;;;1.80;99.90;;;;;;4934624;29;20211;-71
2022/01/20 06:02:36;;;;;;;4.45;1.77;;;1.90;99.90;;;;;;4940625;29;20254;-71
2022/01/20 06:05:04;;;;;;;8.38;2.28;;;1.90;99.90;;;;;;4935220;29;20226;-71
2022/01/20 06:07:31;;;;;;;9.13;1.98;;;1.90;99.90;;;;;;4934129;29;20297;-71
2022/01/20 06:09:59;;;;;;;6.65;2.05;;;1.90;99.90;;;;;;4934755;29;20221;-71
2022/01/20 06:12:26;;;;;;;8.65;1.80;;;1.90;99.90;;;;;;4935570;29;20707;-71
2022/01/20 06:14:52;;;;;;;2.78;1.35;;;1.90;99.90;;;;;;4939630;29;20607;-71
2022/01/20 06:17:26;;;;;;;8.80;3.65;;;1.90;99.90;;;;;;4945864;28;20277;-71
2022/01/20 06:19:53;;;;;;;11.18;2.13;;;1.90;99.90;;;;;;4934464;29;20269;-71
2022/01/20 06:22:20;;;;;;;7.53;1.30;;;1.90;99.90;;;;;;4934181;29;20337;-71
2022/01/20 06:24:46;;;;;;;9.73;1.75;;;1.90;99.90;;;;;;4934195;29;20245;-71
2022/01/20 06:27:15;;;;;;;5.00;2.15;;;1.90;99.90;;;;;;4933409;29;20214;-71
2022/01/20 06:29:41;;;;;;;9.15;1.85;;;1.90;99.90;;;;;;4943684;29;20221;-70
2022/01/20 06:32:08;;;;;;;4.85;1.90;;;1.90;99.90;;;;;;4938016;29;20695;-71
2022/01/20 06:34:35;;;;;;;4.55;2.13;;;2.00;99.90;;;;;;4934111;29;20225;-71
2022/01/20 06:37:02;;;;;;;5.03;2.03;;;2.00;99.90;;;;;;4933241;29;20655;-71
2022/01/20 06:39:29;;;;;;;6.00;1.88;;;1.90;99.90;;;;;;4933891;29;20667;-71
2022/01/20 06:41:55;;;;;;;7.93;2.35;;;1.90;99.90;;;;;;4935857;29;20616;-71
2022/01/20 06:44:24;;;;;;;11.68;2.22;;;2.10;99.90;;;;;;4948307;28;20226;-69
2022/01/20 06:46:50;;;;;;;5.45;1.65;;;2.10;99.90;;;;;;4933733;29;20209;-69
2022/01/20 06:49:18;;;;;;;2.92;1.20;;;2.00;99.90;;;;;;4933537;29;20202;-70
2022/01/20 06:51:45;;;;;;;7.15;1.50;;;2.00;99.90;;;;;;4935692;29;20777;-70
2022/01/20 06:54:12;;;;;;;3.53;2.33;;;2.00;99.90;;;;;;4940935;28;20320;-70
2022/01/20 06:56:41;;;;;;;3.33;2.30;;;2.00;99.90;;;;;;4933218;29;20206;-70
2022/01/20 06:59:08;;;;;;;6.50;2.60;;;1.90;99.90;;;;;;4933525;29;20339;-70
2022/01/20 07:01:36;;;;;;;3.88;1.63;;;1.90;99.90;;;;;;4933236;29;20252;-70
2022/01/20 07:04:03;;;;;;;16.65;2.28;;;2.00;99.90;;;;;;4933794;29;20234;-68
2022/01/20 07:06:30;;;;;;;5.47;2.20;;;1.90;99.90;;;;;;4933865;29;20217;-69
2022/01/20 07:08:56;;;;;;;5.82;1.65;;;1.90;99.90;;;;;;4933267;29;20261;-69
2022/01/20 07:11:23;;;;;;;4.65;2.55;;;1.90;99.90;;;;;;4931949;29;20209;-69
2022/01/20 07:13:50;;;;;;;9.43;1.88;;;1.90;99.90;;;;;;4939274;29;20785;-69
2022/01/20 07:16:17;;;;;;;4.25;2.05;;;1.90;99.90;;;;;;4933492;29;20209;-69
2022/01/20 07:18:44;;;;;;;8.18;2.70;;;1.90;99.90;;;;;;4933363;29;20202;-70
2022/01/20 07:21:11;;;;;;;8.20;2.30;;;1.90;99.90;;;;;;4933455;29;20221;-69
2022/01/20 07:23:38;;;;;;;5.40;1.73;;;1.90;99.90;;;;;;4933157;29;20246;-69
2022/01/20 07:26:04;;;;;;;9.05;2.50;;;1.90;99.90;;;;;;4932979;29;20238;-69
2022/01/20 07:28:31;;;;;;;12.35;2.85;;;2.00;99.90;;;;;;4933020;29;20265;-69
2022/01/20 07:30:58;;;;;;;4.30;2.03;;;1.90;99.90;;;;;;4928928;29;20205;-69
2022/01/20 07:33:25;;;;;;;13.98;2.20;;;1.90;99.90;;;;;;4942517;29;20252;-69
2022/01/20 07:35:53;;;;;;;7.50;2.22;;;1.90;99.90;;;;;;4939982;29;20209;-68
2022/01/20 07:38:20;;;;;;;9.27;3.53;;;2.00;99.90;;;;;;4942355;29;20205;-68
2022/01/20 07:40:47;;;;;;;7.18;2.13;;;2.00;99.90;;;;;;4949799;29;20252;-68
2022/01/20 07:43:13;;;;;;;10.20;4.70;;;2.00;99.90;;;;;;4939377;29;20221;-68
2022/01/20 07:45:40;;;;;;;6.18;2.50;;;2.00;99.90;;;;;;4936473;29;20217;-68
2022/01/20 07:48:07;;;;;;;12.77;2.78;;;2.00;99.90;;;;;;4942765;29;20213;-68
2022/01/20 07:50:34;;;;;;;8.13;2.50;;;2.00;99.90;;;;;;4937496;29;20770;-68
2022/01/20 07:53:03;;;;;;;8.68;2.03;;;2.10;99.90;;;;;;4936539;29;20264;-69
2022/01/20 07:55:30;;;;;;;6.03;2.20;;;2.00;99.90;;;;;;4936246;29;20205;-69
2022/01/20 07:57:56;;;;;;;12.52;4.15;;;2.00;99.90;;;;;;4936146;29;20209;-69
2022/01/20 08:00:23;;;;;;;3.47;2.30;;;2.00;99.90;;;;;;4935875;29;20221;-70
2022/01/20 08:02:50;;;;;;;15.02;3.85;;;2.10;99.90;;;;;;4936542;29;20280;-70
2022/01/20 08:05:17;;;;;;;16.90;3.25;;;2.10;99.90;;;;;;4935915;29;20225;-69
2022/01/20 08:07:44;;;;;;;9.77;2.50;;;2.10;99.90;;;;;;4936301;29;20360;-69
2022/01/20 08:10:13;;;;;;;10.70;2.33;;;2.20;99.90;;;;;;4936797;29;20261;-69
2022/01/20 08:12:40;;;;;;;12.70;3.15;;;2.20;99.90;;;;;;4935344;29;20675;-69
2022/01/20 08:15:09;;;;;;;6.75;1.98;;;2.20;99.90;;;;;;4936304;29;20226;-69
2022/01/20 08:17:36;;;;;;;8.55;3.33;;;2.20;99.90;;;;;;4935995;29;20210;-69
2022/01/20 08:20:03;;;;;;;4.35;2.72;;;2.20;99.90;;;;;;4936112;29;20218;-69
2022/01/20 08:22:33;;;;;;;20.60;2.50;;;2.30;99.90;;;;;;4934847;29;20273;-69
2022/01/20 08:25:00;;;;;;;9.85;2.90;;;2.40;99.90;;;;;;4944969;29;20352;-69
2022/01/20 08:27:28;;;;;;;7.43;3.17;;;2.40;99.90;;;;;;4945161;29;20575;-69
2022/01/20 08:29:55;;;;;;;4.97;2.00;;;2.50;99.90;;;;;;4938718;29;20261;-69
2022/01/20 08:32:21;;;;;;;5.03;2.15;;;2.60;99.90;;;;;;4936472;29;20212;-69
2022/01/20 08:34:48;;;;;;;7.90;3.55;;;2.70;99.90;;;;;;4935351;29;20726;-69
2022/01/20 08:37:15;;;;;;;6.20;2.42;;;2.70;99.90;;;;;;4935886;29;20628;-69
2022/01/20 08:39:43;;;;;;;6.22;2.72;;;2.80;99.90;;;;;;4939828;29;20201;-69
2022/01/20 08:42:10;;;;;;;9.05;2.40;;;2.80;99.90;;;;;;4936734;29;20588;-69
2022/01/20 08:44:39;;;;;;;6.25;2.38;;;2.80;99.90;;;;;;4941371;29;20222;-69
2022/01/20 08:47:14;;;;;;;9.35;2.55;;;2.80;99.90;;;;;;4943555;29;20557;-70
2022/01/20 08:49:40;;;;;;;5.40;1.88;;;2.80;99.90;;;;;;4944415;29;20296;-69
2022/01/20 08:52:07;;;;;;;12.10;3.17;;;2.90;99.90;;;;;;4952169;28;20218;-69
2022/01/20 08:54:34;;;;;;;4.00;1.58;;;2.80;99.90;;;;;;4942260;29;20711;-69
2022/01/20 08:57:01;;;;;;;8.60;2.78;;;2.80;99.90;;;;;;4937698;29;20312;-69
2022/01/20 08:59:28;;;;;;;6.10;2.40;;;2.80;99.90;;;;;;4937663;29;20743;-69
2022/01/20 09:01:56;;;;;;;8.52;1.70;;;2.80;99.90;;;;;;4935720;29;20202;-69
2022/01/20 09:04:23;;;;;;;8.05;2.10;;;2.80;99.90;;;;;;4936183;29;20233;-69
2022/01/20 09:06:49;;;;;;;5.15;3.00;;;2.80;99.90;;;;;;4935896;29;20265;-69
2022/01/20 09:09:17;;;;;;;8.20;2.50;;;2.80;99.90;;;;;;4940762;29;20250;-69
2022/01/20 09:12:02;;;;;;;9.30;2.13;;;2.80;99.90;;;;;;4935112;29;20241;-69
2022/01/20 09:17:17;;;;;;;1.85;1.38;;;2.90;99.90;;;;;;4921687;29;20212;-69
2022/01/20 09:19:44;;;;;;;2.15;1.52;;;2.90;99.90;;;;;;4941342;29;20206;-68
2022/01/20 09:22:11;;;;;;;4.63;1.35;;;2.90;99.90;;;;;;4932892;29;20206;-69
2022/01/20 09:24:38;;;;;;;5.60;1.83;;;3.00;99.90;;;;;;4932366;29;20811;-69
2022/01/20 09:27:05;;;;;;;7.65;2.17;;;3.00;99.90;;;;;;4931936;29;20219;-69
2022/01/20 09:29:32;;;;;;;3.08;1.63;;;3.10;99.90;;;;;;4934101;29;20213;-68
2022/01/20 09:31:59;;;;;;;6.10;1.13;;;3.10;99.90;;;;;;4945861;29;20208;-70
2022/01/20 09:34:28;;;;;;;7.07;1.80;;;3.10;99.90;;;;;;4938810;29;20218;-70
2022/01/20 09:36:54;;;;;;;4.95;3.40;;;3.20;99.90;;;;;;4934855;29;20206;-70
2022/01/20 09:39:21;;;;;;;4.35;1.50;;;3.30;99.90;;;;;;4935033;29;20677;-70
2022/01/20 09:41:49;;;;;;;3.72;1.33;;;3.30;99.90;;;;;;4934698;29;20217;-70
2022/01/20 09:44:16;;;;;;;8.75;3.17;;;3.30;99.90;;;;;;4934853;29;20764;-70
2022/01/20 09:46:45;;;;;;;8.98;3.63;;;3.40;99.90;;;;;;4933745;29;20214;-70
2022/01/20 09:49:12;;;;;;;2.38;1.65;;;3.50;99.90;;;;;;4935227;29;20698;-70
2022/01/20 09:51:40;;;;;;;9.90;1.73;;;3.60;99.90;;;;;;4946303;29;20304;-70
2022/01/20 09:54:07;;;;;;;9.18;2.50;;;3.70;99.90;;;;;;4943785;28;20233;-70
2022/01/20 09:56:34;;;;;;;10.77;3.20;;;3.70;99.90;;;;;;4935052;29;20278;-68
2022/01/20 09:59:01;;;;;;;4.28;2.70;;;3.80;99.90;;;;;;4935287;29;20276;-68
2022/01/20 10:01:36;;;;;;;3.85;1.40;;;3.90;99.90;;;;;;4934336;29;20210;-69
2022/01/20 10:04:03;;;;;;;5.65;2.95;;;4.10;99.90;;;;;;4933431;29;20244;-69
2022/01/20 10:06:30;;;;;;;6.35;2.58;;;4.20;99.90;;;;;;4934659;29;20218;-69
2022/01/20 10:09:01;;;;;;;5.45;2.08;;;4.20;99.90;;;;;;4915249;29;20331;-69
2022/01/20 10:11:29;;;;;;;5.22;2.15;;;4.20;99.90;;;;;;4915367;29;20279;-69
2022/01/20 10:13:59;;;;;;;5.05;1.20;;;4.10;99.90;;;;;;4927613;29;20226;-69
2022/01/20 10:16:26;;;;;;;4.85;1.50;;;4.00;99.90;;;;;;4934336;29;20675;-69
2022/01/20 10:18:57;;;;;;;5.88;2.25;;;4.00;99.90;;;;;;4934996;29;20293;-70
2022/01/20 10:21:29;;;;;;;2.47;1.60;;;4.00;99.90;;;;;;4934241;29;20640;-69
2022/01/20 10:23:55;;;;;;;15.50;3.72;;;3.90;99.90;;;;;;4934208;29;20237;-70
2022/01/20 10:26:25;;;;;;;6.40;2.30;;;3.90;99.90;;;;;;4933671;29;20206;-70
2022/01/20 10:28:55;;;;;;;2.45;2.25;;;3.90;99.90;;;;;;4934956;29;20206;-70
2022/01/20 10:31:39;;;;;;;1.48;1.10;;;3.90;99.90;;;;;;4934370;29;20216;-70
2022/01/20 10:34:08;;;;;;;3.55;1.40;;;3.90;99.90;;;;;;4934337;29;20281;-71
2022/01/20 10:36:39;;;;;;;5.68;2.10;;;3.90;99.90;;;;;;4934434;29;20206;-70
2022/01/20 10:39:06;;;;;;;1.13;1.05;;;3.80;99.90;;;;;;4933761;29;20320;-70
2022/01/20 10:41:36;;;;;;;1.83;1.25;;;3.70;99.90;;;;;;4933889;29;20596;-70
2022/01/20 10:44:09;;;;;;;5.10;1.98;;;3.70;99.90;;;;;;4934226;29;20440;-70
2022/01/20 10:46:43;;;;;;;3.78;1.55;;;3.70;99.90;;;;;;4934155;29;20210;-70
2022/01/20 10:49:10;;;;;;;2.25;1.50;;;3.70;99.90;;;;;;4934079;29;20238;-70
2022/01/20 10:51:37;;;;;;;3.75;1.42;;;3.90;99.90;;;;;;4938290;29;20611;-69
2022/01/20 10:54:07;;;;;;;2.45;1.52;;;4.10;99.90;;;;;;4933271;28;20334;-70
2022/01/20 10:56:50;;;;;;;7.85;2.08;;;4.10;99.90;;;;;;4934243;29;20213;-70
2022/01/20 10:59:17;;;;;;;9.68;1.45;;;4.10;99.90;;;;;;4941741;29;20293;-69
2022/01/20 11:01:44;;;;;;;3.33;1.67;;;4.00;99.90;;;;;;4933578;29;20256;-69
2022/01/20 11:04:11;;;;;;;3.15;1.70;;;4.00;99.90;;;;;;4933893;29;20635;-69
2022/01/20 11:06:39;;;;;;;6.05;1.83;;;4.00;99.90;;;;;;4933969;29;20210;-69
2022/01/20 11:09:08;;;;;;;1.02;1.02;;;3.80;99.90;;;;;;4933464;29;20217;-69
2022/01/20 11:11:37;;;;;;;1.75;1.10;;;3.60;99.90;;;;;;4933217;29;20209;-69
2022/01/20 11:14:05;;;;;;;2.95;0.80;;;3.50;99.90;;;;;;4933661;29;20587;-69
2022/01/20 11:16:39;;;;;;;7.22;2.10;;;3.40;99.90;;;;;;4933589;29;20572;-69
2022/01/20 11:19:18;;;;;;;2.97;1.50;;;3.40;99.90;;;;;;4933935;29;20209;-68
2022/01/20 11:21:45;;;;;;;2.85;1.10;;;3.30;99.90;;;;;;4933441;29;20269;-69
2022/01/20 11:24:22;;;;;;;2.55;0.80;;;3.20;99.90;;;;;;4933782;29;20257;-69
2022/01/20 11:26:51;;;;;;;3.60;1.60;;;3.10;99.90;;;;;;4957698;23;20773;-68
2022/01/20 11:29:20;;;;;;;1.27;1.20;;;3.10;99.90;;;;;;4972052;28;20216;-68
2022/01/20 11:31:47;;;;;;;2.22;1.58;;;3.10;99.90;;;;;;4972750;28;20209;-68
2022/01/20 11:34:15;;;;;;;2.15;0.73;;;3.10;99.90;;;;;;4972217;28;20569;-67
2022/01/20 11:36:42;;;;;;;1.65;1.42;;;3.10;99.90;;;;;;4967564;28;20284;-68
2022/01/20 11:39:09;;;;;;;1.77;1.17;;;3.20;99.90;;;;;;4951989;28;20224;-68
2022/01/20 11:41:39;;;;;;;1.42;1.20;;;3.20;99.90;;;;;;4934713;28;20257;-67
2022/01/20 11:44:11;;;;;;;1.25;1.15;;;3.30;99.90;;;;;;4948180;29;20598;-68
2022/01/20 11:46:43;;;;;;;1.23;1.13;;;3.30;99.90;;;;;;4952458;28;20324;-67
2022/01/20 11:49:11;;;;;;;1.17;1.17;;;3.30;99.90;;;;;;4952836;28;20292;-67
2022/01/20 11:51:49;;;;;;;6.90;1.70;;;3.40;99.90;;;;;;4952147;28;20217;-68
2022/01/20 11:54:27;;;;;;;6.78;1.95;;;3.40;99.90;;;;;;4944771;28;20501;-68
2022/01/20 11:57:05;;;;;;;3.22;1.25;;;3.50;99.90;;;;;;4964008;28;20326;-68
2022/01/20 11:59:37;;;;;;;3.58;1.77;;;3.50;99.90;;;;;;4971725;28;20219;-68
2022/01/20 12:02:05;;;;;;;3.60;1.50;;;3.60;99.90;;;;;;4953167;28;20228;-69
2022/01/20 12:04:33;;;;;;;3.75;1.67;;;3.60;99.90;;;;;;4953125;28;20225;-68
2022/01/20 12:07:00;;;;;;;3.00;0.98;;;3.60;99.90;;;;;;4969104;28;20235;-68
2022/01/20 12:09:33;;;;;;;9.07;5.50;;;3.60;99.90;;;;;;4969287;28;20320;-68
2022/01/20 12:12:01;;;;;;;1.27;0.70;;;3.70;99.90;;;;;;4968629;28;20586;-68
2022/01/20 12:14:35;;;;;;;1.20;1.20;;;3.80;99.90;;;;;;4971397;28;20208;-67
2022/01/20 12:17:05;;;;;;;4.70;1.45;;;3.90;99.90;;;;;;4971256;28;20256;-68
2022/01/20 12:19:32;;;;;;;3.90;0.98;;;3.90;99.90;;;;;;4954177;28;20243;-68
2022/01/20 12:21:59;;;;;;;2.30;1.60;;;4.00;99.90;;;;;;4952876;28;20205;-70
2022/01/20 12:24:26;;;;;;;3.20;1.88;;;4.10;99.90;;;;;;4952948;28;20292;-68
2022/01/20 12:26:52;;;;;;;2.28;0.73;;;4.20;99.90;;;;;;4974565;28;20307;-68
2022/01/20 12:29:19;;;;;;;11.25;1.98;;;4.20;99.90;;;;;;4965895;28;20201;-68
2022/01/20 12:31:48;;;;;;;7.30;1.88;;;4.20;99.90;;;;;;4952688;28;20287;-68
2022/01/20 12:34:19;;;;;;;12.88;2.58;;;4.30;99.90;;;;;;4956133;28;20201;-69
2022/01/20 12:36:51;;;;;;;1.30;0.80;;;4.40;99.90;;;;;;4946479;28;20241;-68
2022/01/20 12:39:25;;;;;;;4.55;1.17;;;4.40;99.90;;;;;;4957471;29;20208;-69
2022/01/20 12:41:56;;;;;;;3.70;1.25;;;4.40;99.90;;;;;;4961573;28;20213;-69
2022/01/20 12:44:24;;;;;;;2.28;2.08;;;4.40;99.90;;;;;;4968815;28;20681;-68
2022/01/20 12:46:51;;;;;;;3.30;1.15;;;4.40;99.90;;;;;;4974276;28;20221;-68
2022/01/20 12:49:19;;;;;;;2.05;1.20;;;4.40;99.90;;;;;;4964333;28;20276;-68
2022/01/20 12:51:49;;;;;;;1.00;1.00;;;4.30;99.90;;;;;;4961521;28;20228;-68
2022/01/20 12:54:18;;;;;;;3.60;1.10;;;4.30;99.90;;;;;;4973012;28;20261;-68
2022/01/20 12:56:46;;;;;;;2.55;2.25;;;4.30;99.90;;;;;;4960363;28;20237;-67
2022/01/20 12:59:21;;;;;;;2.75;0.63;;;4.40;99.90;;;;;;4981650;28;20805;-67
2022/01/20 13:01:49;;;;;;;4.70;2.25;;;4.40;99.90;;;;;;4980349;28;20270;-68
2022/01/20 13:04:17;;;;;;;9.13;1.60;;;4.40;99.90;;;;;;4956344;29;20300;-68
2022/01/20 13:06:52;;;;;;;6.00;1.42;;;4.50;99.90;;;;;;4959423;28;20717;-68
2022/01/20 13:09:21;;;;;;;14.15;1.88;;;4.60;99.90;;;;;;4955523;28;20216;-68
2022/01/20 13:11:55;;;;;;;7.30;2.30;;;4.80;99.90;;;;;;4948517;28;20216;-68
2022/01/20 13:14:33;;;;;;;3.08;0.82;;;4.90;99.90;;;;;;4955159;28;20201;-68
2022/01/20 13:17:01;;;;;;;5.22;2.22;;;4.90;99.90;;;;;;4936044;29;20719;-68
2022/01/20 13:19:38;;;;;;;3.25;1.30;;;4.90;99.90;;;;;;4954480;28;20209;-68
2022/01/20 13:22:18;;;;;;;4.50;0.98;;;4.90;99.90;;;;;;4974358;28;20212;-68
2022/01/20 13:24:46;;;;;;;3.72;0.95;;;4.70;99.90;;;;;;4971424;28;20224;-69
2022/01/20 13:27:14;;;;;;;1.92;0.70;;;4.20;99.90;;;;;;4968421;28;20241;-68
2022/01/20 13:29:43;;;;;;;4.13;0.70;;;3.60;99.90;;;;;;4954359;28;20213;-67
2022/01/20 13:32:10;;;;;;;2.08;0.60;;;3.10;99.90;;;;;;4946512;28;20674;-69
2022/01/20 13:34:37;;;;;;;5.18;1.08;;;2.60;99.90;;;;;;4947112;28;20249;-69
2022/01/20 13:37:15;;;;;;;3.15;1.05;;;2.30;99.90;;;;;;4952861;28;20269;-68
2022/01/20 13:39:42;;;;;;;1.80;0.50;;;2.30;99.90;;;;;;4935082;29;20297;-68
2022/01/20 13:42:23;;;;;;;2.47;0.77;;;2.30;99.90;;;;;;4939222;28;20304;-68
2022/01/20 13:45:15;;;;;;;3.03;0.70;;;2.20;99.90;;;;;;4952229;28;20232;-69
2022/01/20 13:47:53;;;;;;;1.92;0.80;;;2.20;99.90;;;;;;4947090;28;20225;-69
2022/01/20 13:50:23;;;;;;;0.82;0.50;;;2.20;99.90;;;;;;4954315;28;20225;-68
2022/01/20 13:52:52;;;;;;;0.65;0.65;;;2.20;99.90;;;;;;4956656;28;20263;-68
2022/01/20 13:55:21;;;;;;;0.93;0.93;;;2.20;99.90;;;;;;4948411;28;20648;-69
2022/01/20 13:57:48;;;;;;;1.73;0.77;;;2.20;99.90;;;;;;4934449;29;20277;-69
2022/01/20 14:00:15;;;;;;;2.65;1.00;;;2.30;99.90;;;;;;4938001;28;20214;-69
2022/01/20 14:02:48;;;;;;;1.52;1.20;;;2.40;99.90;;;;;;4952363;28;20209;-68
2022/01/20 14:05:15;;;;;;;0.52;0.50;;;2.40;99.90;;;;;;4935152;29;20310;-68
2022/01/20 14:07:42;;;;;;;1.45;0.80;;;2.30;99.90;;;;;;4953072;28;20229;-68
2022/01/20 14:10:11;;;;;;;1.35;0.77;;;2.20;99.90;;;;;;4953405;28;20299;-69
2022/01/20 14:12:37;;;;;;;3.30;0.85;;;2.00;99.90;;;;;;4940521;28;20210;-68
2022/01/20 14:15:05;;;;;;;8.73;0.85;;;2.00;99.90;;;;;;4950158;28;20227;-69
2022/01/20 14:17:36;;;;;;;1.90;1.25;;;1.80;99.90;;;;;;4946911;28;20744;-69
2022/01/20 14:20:08;;;;;;;1.27;1.17;;;1.80;99.90;;;;;;4953735;28;20201;-69
2022/01/20 14:22:35;;;;;;;1.55;0.90;;;1.80;99.90;;;;;;4958124;28;20204;-69
2022/01/20 14:25:02;;;;;;;3.88;1.40;;;1.70;99.90;;;;;;4957318;28;20329;-68
2022/01/20 14:27:30;;;;;;;1.35;1.05;;;1.60;99.90;;;;;;4934868;28;20301;-68
2022/01/20 14:29:57;;;;;;;8.02;2.90;;;1.60;99.90;;;;;;4947840;29;20221;-68
2022/01/20 14:32:24;;;;;;;0.88;0.82;;;1.60;99.90;;;;;;4949747;28;20213;-68
2022/01/20 14:34:51;;;;;;;2.50;0.70;;;1.60;99.90;;;;;;4945260;29;20248;-69
2022/01/20 14:37:18;;;;;;;1.92;0.88;;;1.60;99.90;;;;;;4940655;28;20331;-69
2022/01/20 14:39:44;;;;;;;1.40;1.30;;;1.60;99.90;;;;;;4940862;28;20652;-69
2022/01/20 14:42:14;;;;;;;5.07;1.50;;;1.60;99.90;;;;;;4945142;28;20264;-69
2022/01/20 14:44:43;;;;;;;1.77;1.13;;;1.60;99.90;;;;;;4941592;29;20304;-69
2022/01/20 14:47:13;;;;;;;5.45;1.90;;;1.60;99.90;;;;;;4932806;28;20661;-69
2022/01/20 14:49:39;;;;;;;5.55;1.20;;;1.50;99.90;;;;;;4930836;29;20339;-69
2022/01/20 14:52:07;;;;;;;6.35;2.45;;;1.60;99.90;;;;;;4934578;28;20250;-68
2022/01/20 14:54:35;;;;;;;3.92;2.00;;;1.50;99.90;;;;;;4931748;29;20222;-68
2022/01/20 14:57:02;;;;;;;8.65;2.10;;;1.50;99.90;;;;;;4933052;28;20229;-69
2022/01/20 14:59:30;;;;;;;3.50;2.47;;;1.50;99.90;;;;;;4930448;29;20221;-68
2022/01/20 15:01:58;;;;;;;7.15;2.25;;;1.50;99.90;;;;;;4936684;28;20209;-69
2022/01/20 15:04:25;;;;;;;3.00;1.95;;;1.50;99.90;;;;;;4950134;28;20217;-69
2022/01/20 15:06:52;;;;;;;5.60;1.40;;;1.50;99.90;;;;;;4946066;28;20225;-67
2022/01/20 15:09:19;;;;;;;3.03;2.40;;;1.50;99.90;;;;;;4932577;28;20218;-67
2022/01/20 15:11:46;;;;;;;1.45;0.98;;;1.60;99.90;;;;;;4949307;28;20561;-67
2022/01/20 15:14:12;;;;;;;1.48;1.38;;;1.50;99.90;;;;;;4934723;28;20241;-68
2022/01/20 15:16:39;;;;;;;7.30;3.08;;;1.60;99.90;;;;;;4944681;28;20225;-68
2022/01/20 15:19:09;;;;;;;1.77;1.50;;;1.60;99.90;;;;;;4939948;28;20210;-68
2022/01/20 15:21:37;;;;;;;2.40;1.08;;;1.60;99.90;;;;;;4941713;28;20206;-68
2022/01/20 15:24:04;;;;;;;3.75;1.33;;;1.60;99.90;;;;;;4948694;28;20216;-67
2022/01/20 15:26:30;;;;;;;5.40;3.25;;;1.60;99.90;;;;;;4947057;28;20241;-68
2022/01/20 15:28:58;;;;;;;15.48;8.30;;;1.60;99.90;;;;;;4946001;28;20253;-68
2022/01/20 15:31:28;;;;;;;10.40;3.30;;;1.60;99.90;;;;;;4949704;28;20223;-68
2022/01/20 15:33:54;;;;;;;1.15;0.90;;;1.60;99.90;;;;;;4945341;28;20287;-68
2022/01/20 15:36:22;;;;;;;7.82;2.75;;;1.60;99.90;;;;;;4950650;28;20236;-68
2022/01/20 15:38:50;;;;;;;6.28;2.53;;;1.60;99.90;;;;;;4948099;28;20248;-67
2022/01/20 15:41:16;;;;;;;4.10;1.60;;;1.60;99.90;;;;;;4949703;28;20213;-68
2022/01/20 15:43:43;;;;;;;3.72;2.00;;;1.60;99.90;;;;;;4934831;28;20686;-68
2022/01/20 15:46:10;;;;;;;3.65;2.00;;;1.60;99.90;;;;;;4948554;28;20229;-68
2022/01/20 15:48:37;;;;;;;7.47;3.13;;;1.70;99.90;;;;;;4949910;28;20209;-68
2022/01/20 15:51:04;;;;;;;9.77;3.90;;;1.70;99.90;;;;;;4960799;28;20219;-69
2022/01/20 15:53:33;;;;;;;2.97;1.73;;;1.70;99.90;;;;;;4958996;28;20213;-68
2022/01/20 15:55:59;;;;;;;3.13;1.60;;;1.70;99.90;;;;;;4949251;28;20229;-69
2022/01/20 15:58:26;;;;;;;2.80;1.50;;;1.70;99.90;;;;;;4936278;28;20598;-68
2022/01/20 16:00:53;;;;;;;2.83;1.73;;;1.60;99.90;;;;;;4948289;29;20217;-68
2022/01/20 16:03:20;;;;;;;5.85;2.22;;;1.70;99.90;;;;;;4942346;28;20241;-69
2022/01/20 16:05:47;;;;;;;4.45;2.10;;;1.70;99.90;;;;;;4934978;28;20241;-69
2022/01/20 16:08:14;;;;;;;2.88;1.35;;;1.60;99.90;;;;;;4934876;28;20210;-68
2022/01/20 16:10:42;;;;;;;1.83;1.30;;;1.60;99.90;;;;;;4943425;29;20225;-68
2022/01/20 16:13:10;;;;;;;1.00;0.80;;;1.70;99.90;;;;;;4952500;28;20606;-69
2022/01/20 16:15:38;;;;;;;2.25;1.55;;;1.60;99.90;;;;;;4953466;28;20201;-68
2022/01/20 16:18:05;;;;;;;2.80;1.63;;;1.60;99.90;;;;;;4950588;28;20268;-68
2022/01/20 16:20:33;;;;;;;10.93;2.22;;;1.60;99.90;;;;;;4965249;28;20288;-69
2022/01/20 16:22:59;;;;;;;12.82;1.77;;;1.60;99.90;;;;;;4944593;28;20260;-70
2022/01/20 16:25:26;;;;;;;2.28;1.60;;;1.60;99.90;;;;;;4933761;29;20237;-70
2022/01/20 16:27:54;;;;;;;5.68;1.77;;;1.50;99.90;;;;;;4944655;28;20573;-70
2022/01/20 16:30:21;;;;;;;10.63;2.33;;;1.50;99.90;;;;;;4952622;28;20217;-70
2022/01/20 16:32:48;;;;;;;6.43;1.52;;;1.50;99.90;;;;;;4934530;28;20218;-70
2022/01/20 16:35:15;;;;;;;1.52;1.42;;;1.50;99.90;;;;;;4934071;28;20206;-69
2022/01/20 16:37:43;;;;;;;7.45;3.13;;;1.50;99.90;;;;;;4934017;28;20247;-70
2022/01/20 16:40:11;;;;;;;7.95;3.13;;;1.50;99.90;;;;;;4947850;29;20215;-71
2022/01/20 16:42:39;;;;;;;7.15;2.88;;;1.50;99.90;;;;;;4951019;28;20679;-69
2022/01/20 16:45:09;;;;;;;5.80;3.08;;;1.40;99.90;;;;;;4953584;28;20280;-69
2022/01/20 16:47:38;;;;;;;7.80;3.20;;;1.40;99.90;;;;;;4944536;29;20230;-69
2022/01/20 16:50:05;;;;;;;5.05;1.45;;;1.40;99.90;;;;;;4940621;28;20692;-69
2022/01/20 16:52:32;;;;;;;7.03;2.88;;;1.40;99.90;;;;;;4954995;28;20660;-70
2022/01/20 16:54:59;;;;;;;5.95;3.13;;;1.40;99.90;;;;;;4953890;28;20434;-69
2022/01/20 16:57:26;;;;;;;11.10;5.20;;;1.40;99.90;;;;;;4953957;28;20229;-69
2022/01/20 16:59:54;;;;;;;8.43;2.33;;;1.30;99.90;;;;;;4950116;28;20241;-69
2022/01/20 17:02:32;;;;;;;4.43;3.15;;;1.30;99.90;;;;;;4954054;28;20232;-70
2022/01/20 17:04:59;;;;;;;5.90;2.72;;;1.30;99.90;;;;;;4951463;28;20212;-70
2022/01/20 17:07:25;;;;;;;3.28;2.63;;;1.30;99.90;;;;;;4949657;28;20314;-69
2022/01/20 17:09:53;;;;;;;3.20;1.90;;;1.30;99.90;;;;;;4941885;28;20216;-69
2022/01/20 17:12:22;;;;;;;6.03;2.50;;;1.30;99.90;;;;;;4954517;28;20264;-70
2022/01/20 17:14:50;;;;;;;3.78;2.40;;;1.30;99.90;;;;;;4957312;28;20224;-69
2022/01/20 17:17:17;;;;;;;3.25;1.52;;;1.30;99.90;;;;;;4956772;28;20296;-71
2022/01/20 17:19:45;;;;;;;7.50;2.95;;;1.20;99.90;;;;;;4945437;28;20514;-69
2022/01/20 17:22:12;;;;;;;4.80;2.22;;;1.30;99.90;;;;;;4953449;29;20269;-68
2022/01/20 17:24:38;;;;;;;11.18;2.25;;;1.30;99.90;;;;;;4952451;28;20568;-70
2022/01/20 17:27:06;;;;;;;4.65;3.75;;;1.30;99.90;;;;;;4942804;28;20229;-70
2022/01/20 17:29:33;;;;;;;30.35;9.82;;;1.30;99.90;;;;;;4935704;29;20218;-70
2022/01/20 17:32:00;;;;;;;6.68;3.72;;;1.30;99.90;;;;;;4952015;28;20268;-70
2022/01/20 17:34:27;;;;;;;26.15;6.68;;;1.30;99.90;;;;;;4951764;28;20205;-71
2022/01/20 17:36:55;;;;;;;14.98;5.97;;;1.20;99.90;;;;;;4950471;28;20222;-69
2022/01/20 17:39:23;;;;;;;10.65;4.43;;;1.20;99.90;;;;;;4953795;28;20508;-69
2022/01/20 17:41:50;;;;;;;11.90;3.92;;;1.30;99.90;;;;;;4940379;28;20217;-70
2022/01/20 17:44:16;;;;;;;4.80;2.70;;;1.20;99.90;;;;;;4934451;29;20783;-70
2022/01/20 17:46:43;;;;;;;7.15;3.10;;;1.20;99.90;;;;;;4936326;28;20229;-70
2022/01/20 17:49:10;;;;;;;2.72;1.73;;;1.10;99.90;;;;;;4971347;28;20244;-69
2022/01/20 17:51:37;;;;;;;4.90;2.55;;;1.10;99.90;;;;;;4946120;28;20616;-69
2022/01/20 17:54:06;;;;;;;4.30;3.47;;;1.10;99.90;;;;;;4953361;28;20209;-70
2022/01/20 17:56:33;;;;;;;5.55;3.25;;;1.10;99.90;;;;;;4952928;28;20221;-68
2022/01/20 17:59:00;;;;;;;12.90;4.88;;;1.10;99.90;;;;;;4944264;28;20214;-70
2022/01/20 18:01:27;;;;;;;5.75;3.65;;;1.10;99.90;;;;;;4934247;28;20213;-69
2022/01/20 18:03:54;;;;;;;6.70;3.42;;;1.10;99.90;;;;;;4934194;29;20673;-69